sensor_id;sensor_type;location;lat;lon;timestamp;temperature;humidity
24011;DHT22;12217;50.792;4.372;2023-04-15T00:01:27;12.40;99.90
24011;DHT22;12217;50.792;4.372;2023-04-15T00:03:53;12.50;99.90
24011;DHT22;12217;50.792;4.372;2023-04-15T00:06:22;12.50;99.90
24011;DHT22;12217;50.792;4.372;2023-04-15T00:08:48;12.60;99.90
24011;DHT22;12217;50.792;4.372;2023-04-15T00:11:15;12.60;99.90
24011;DHT22;12217;50.792;4.372;2023-04-15T00:13:41;12.60;99.90
24011;DHT22;12217;50.792;4.372;2023-04-15T00:16:08;12.60;99.90
24011;DHT22;12217;50.792;4.372;2023-04-15T00:18:34;12.50;99.90
24011;DHT22;12217;50.792;4.372;2023-04-15T00:21:00;12.50;99.90
24011;DHT22;12217;50.792;4.372;2023-04-15T00:23:26;12.60;99.90
24011;DHT22;12217;50.792;4.372;2023-04-15T00:25:52;12.50;99.90
24011;DHT22;12217;50.792;4.372;2023-04-15T00:28:17;12.50;99.90
24011;DHT22;12217;50.792;4.372;2023-04-15T00:30:43;12.50;99.90
24011;DHT22;12217;50.792;4.372;2023-04-15T00:33:09;12.50;99.90
24011;DHT22;12217;50.792;4.372;2023-04-15T00:35:35;12.60;99.90
24011;DHT22;12217;50.792;4.372;2023-04-15T00:38:02;12.60;99.90
24011;DHT22;12217;50.792;4.372;2023-04-15T00:40:27;12.60;99.90
24011;DHT22;12217;50.792;4.372;2023-04-15T00:42:53;12.60;99.90
24011;DHT22;12217;50.792;4.372;2023-04-15T00:45:19;12.60;99.90
24011;DHT22;12217;50.792;4.372;2023-04-15T00:47:45;12.60;99.90
24011;DHT22;12217;50.792;4.372;2023-04-15T00:50:11;12.60;99.90
24011;DHT22;12217;50.792;4.372;2023-04-15T00:52:38;12.60;99.90
24011;DHT22;12217;50.792;4.372;2023-04-15T00:55:05;12.50;99.90
24011;DHT22;12217;50.792;4.372;2023-04-15T00:57:31;12.60;99.90
24011;DHT22;12217;50.792;4.372;2023-04-15T00:59:57;12.60;99.90
24011;DHT22;12217;50.792;4.372;2023-04-15T01:02:23;12.60;99.90
24011;DHT22;12217;50.792;4.372;2023-04-15T01:04:49;12.50;99.90
24011;DHT22;12217;50.792;4.372;2023-04-15T01:07:15;12.50;99.90
24011;DHT22;12217;50.792;4.372;2023-04-15T01:09:41;12.60;99.90
24011;DHT22;12217;50.792;4.372;2023-04-15T01:12:07;12.50;99.90
24011;DHT22;12217;50.792;4.372;2023-04-15T01:14:34;12.50;99.90
24011;DHT22;12217;50.792;4.372;2023-04-15T01:17:00;12.50;99.90
24011;DHT22;12217;50.792;4.372;2023-04-15T01:19:26;12.60;99.90
24011;DHT22;12217;50.792;4.372;2023-04-15T01:21:53;12.50;99.90
24011;DHT22;12217;50.792;4.372;2023-04-15T01:24:18;12.50;99.90
24011;DHT22;12217;50.792;4.372;2023-04-15T01:26:44;12.60;99.90
24011;DHT22;12217;50.792;4.372;2023-04-15T01:29:11;12.60;99.90
24011;DHT22;12217;50.792;4.372;2023-04-15T01:31:37;12.30;99.90
24011;DHT22;12217;50.792;4.372;2023-04-15T01:34:03;12.40;99.90
24011;DHT22;12217;50.792;4.372;2023-04-15T01:36:29;12.80;99.90
24011;DHT22;12217;50.792;4.372;2023-04-15T01:38:55;12.80;99.90
24011;DHT22;12217;50.792;4.372;2023-04-15T01:41:25;12.60;99.90
24011;DHT22;12217;50.792;4.372;2023-04-15T01:43:51;12.30;99.90
24011;DHT22;12217;50.792;4.372;2023-04-15T01:46:17;12.20;99.90
24011;DHT22;12217;50.792;4.372;2023-04-15T01:48:42;12.20;99.90
24011;DHT22;12217;50.792;4.372;2023-04-15T01:51:08;12.10;99.90
24011;DHT22;12217;50.792;4.372;2023-04-15T01:53:33;12.20;99.90
24011;DHT22;12217;50.792;4.372;2023-04-15T01:55:59;12.10;99.90
24011;DHT22;12217;50.792;4.372;2023-04-15T01:58:25;12.00;99.90
24011;DHT22;12217;50.792;4.372;2023-04-15T02:00:50;12.00;99.90
24011;DHT22;12217;50.792;4.372;2023-04-15T02:03:16;11.90;99.90
24011;DHT22;12217;50.792;4.372;2023-04-15T02:05:42;11.90;99.90
24011;DHT22;12217;50.792;4.372;2023-04-15T02:08:08;11.90;99.90
24011;DHT22;12217;50.792;4.372;2023-04-15T02:10:33;11.90;99.90
24011;DHT22;12217;50.792;4.372;2023-04-15T02:12:59;11.90;99.90
24011;DHT22;12217;50.792;4.372;2023-04-15T02:15:25;12.00;99.90
24011;DHT22;12217;50.792;4.372;2023-04-15T02:17:51;12.00;99.90
24011;DHT22;12217;50.792;4.372;2023-04-15T02:20:19;12.00;99.90
24011;DHT22;12217;50.792;4.372;2023-04-15T02:22:45;12.00;99.90
24011;DHT22;12217;50.792;4.372;2023-04-15T02:25:12;12.10;99.90
24011;DHT22;12217;50.792;4.372;2023-04-15T02:27:38;12.20;99.90
24011;DHT22;12217;50.792;4.372;2023-04-15T02:30:04;12.20;99.90
24011;DHT22;12217;50.792;4.372;2023-04-15T02:32:31;12.20;99.90
24011;DHT22;12217;50.792;4.372;2023-04-15T02:35:01;12.20;99.90
24011;DHT22;12217;50.792;4.372;2023-04-15T02:37:28;12.00;99.90
24011;DHT22;12217;50.792;4.372;2023-04-15T02:39:54;12.00;99.90
24011;DHT22;12217;50.792;4.372;2023-04-15T02:42:20;12.10;99.90
24011;DHT22;12217;50.792;4.372;2023-04-15T02:44:46;12.20;99.90
24011;DHT22;12217;50.792;4.372;2023-04-15T02:47:11;12.30;99.90
24011;DHT22;12217;50.792;4.372;2023-04-15T02:49:38;12.30;99.90
24011;DHT22;12217;50.792;4.372;2023-04-15T02:52:04;12.30;99.90
24011;DHT22;12217;50.792;4.372;2023-04-15T02:54:30;12.30;99.90
24011;DHT22;12217;50.792;4.372;2023-04-15T02:56:58;12.30;99.90
24011;DHT22;12217;50.792;4.372;2023-04-15T02:59:24;12.30;99.90
24011;DHT22;12217;50.792;4.372;2023-04-15T03:01:49;12.30;99.90
24011;DHT22;12217;50.792;4.372;2023-04-15T03:04:15;12.30;99.90
24011;DHT22;12217;50.792;4.372;2023-04-15T03:06:40;12.30;99.90
24011;DHT22;12217;50.792;4.372;2023-04-15T03:09:06;12.40;99.90
24011;DHT22;12217;50.792;4.372;2023-04-15T03:11:32;12.40;99.90
24011;DHT22;12217;50.792;4.372;2023-04-15T03:13:58;12.30;99.90
24011;DHT22;12217;50.792;4.372;2023-04-15T03:16:24;12.30;99.90
24011;DHT22;12217;50.792;4.372;2023-04-15T03:18:50;12.20;99.90
24011;DHT22;12217;50.792;4.372;2023-04-15T03:21:15;12.20;99.90
24011;DHT22;12217;50.792;4.372;2023-04-15T03:23:41;12.30;99.90
24011;DHT22;12217;50.792;4.372;2023-04-15T03:26:07;12.40;99.90
24011;DHT22;12217;50.792;4.372;2023-04-15T03:28:32;12.30;99.90
24011;DHT22;12217;50.792;4.372;2023-04-15T03:30:58;12.20;99.90
24011;DHT22;12217;50.792;4.372;2023-04-15T03:33:24;12.20;99.90
24011;DHT22;12217;50.792;4.372;2023-04-15T03:35:50;12.20;99.90
24011;DHT22;12217;50.792;4.372;2023-04-15T03:38:16;12.20;99.90
24011;DHT22;12217;50.792;4.372;2023-04-15T03:40:42;12.30;99.90
24011;DHT22;12217;50.792;4.372;2023-04-15T03:43:08;12.20;99.90
24011;DHT22;12217;50.792;4.372;2023-04-15T03:45:34;12.20;99.90
24011;DHT22;12217;50.792;4.372;2023-04-15T03:48:00;12.30;99.90
24011;DHT22;12217;50.792;4.372;2023-04-15T03:50:25;12.30;99.90
24011;DHT22;12217;50.792;4.372;2023-04-15T03:52:52;12.30;99.90
24011;DHT22;12217;50.792;4.372;2023-04-15T03:55:17;12.20;99.90
24011;DHT22;12217;50.792;4.372;2023-04-15T03:57:44;12.30;99.90
24011;DHT22;12217;50.792;4.372;2023-04-15T04:00:10;12.30;99.90
24011;DHT22;12217;50.792;4.372;2023-04-15T04:02:35;12.20;99.90
24011;DHT22;12217;50.792;4.372;2023-04-15T04:05:01;12.20;99.90
24011;DHT22;12217;50.792;4.372;2023-04-15T04:07:27;12.20;99.90
24011;DHT22;12217;50.792;4.372;2023-04-15T04:09:52;12.20;99.90
24011;DHT22;12217;50.792;4.372;2023-04-15T04:12:18;12.20;99.90
24011;DHT22;12217;50.792;4.372;2023-04-15T04:14:43;12.20;99.90
24011;DHT22;12217;50.792;4.372;2023-04-15T04:17:09;12.20;99.90
24011;DHT22;12217;50.792;4.372;2023-04-15T04:19:35;12.10;99.90
24011;DHT22;12217;50.792;4.372;2023-04-15T04:22:01;12.10;99.90
24011;DHT22;12217;50.792;4.372;2023-04-15T04:24:26;12.10;99.90
24011;DHT22;12217;50.792;4.372;2023-04-15T04:26:52;12.20;99.90
24011;DHT22;12217;50.792;4.372;2023-04-15T04:29:17;12.10;99.90
24011;DHT22;12217;50.792;4.372;2023-04-15T04:31:43;12.00;99.90
24011;DHT22;12217;50.792;4.372;2023-04-15T04:34:09;12.00;99.90
24011;DHT22;12217;50.792;4.372;2023-04-15T04:36:34;12.00;99.90
24011;DHT22;12217;50.792;4.372;2023-04-15T04:39:00;12.00;99.90
24011;DHT22;12217;50.792;4.372;2023-04-15T04:41:26;12.00;99.90
24011;DHT22;12217;50.792;4.372;2023-04-15T04:43:51;12.00;99.90
24011;DHT22;12217;50.792;4.372;2023-04-15T04:46:17;11.90;99.90
24011;DHT22;12217;50.792;4.372;2023-04-15T04:48:42;12.00;99.90
24011;DHT22;12217;50.792;4.372;2023-04-15T04:51:08;12.00;99.90
24011;DHT22;12217;50.792;4.372;2023-04-15T04:53:34;12.00;99.90
24011;DHT22;12217;50.792;4.372;2023-04-15T04:56:02;11.80;99.90
24011;DHT22;12217;50.792;4.372;2023-04-15T04:58:27;11.90;99.90
24011;DHT22;12217;50.792;4.372;2023-04-15T05:00:53;11.90;99.90
24011;DHT22;12217;50.792;4.372;2023-04-15T05:03:19;11.90;99.90
24011;DHT22;12217;50.792;4.372;2023-04-15T05:05:44;11.80;99.90
24011;DHT22;12217;50.792;4.372;2023-04-15T05:08:10;11.80;99.90
24011;DHT22;12217;50.792;4.372;2023-04-15T05:10:35;11.60;99.90
24011;DHT22;12217;50.792;4.372;2023-04-15T05:13:01;11.70;99.90
24011;DHT22;12217;50.792;4.372;2023-04-15T05:15:26;11.70;99.90
24011;DHT22;12217;50.792;4.372;2023-04-15T05:17:52;11.70;99.90
24011;DHT22;12217;50.792;4.372;2023-04-15T05:20:18;11.70;99.90
24011;DHT22;12217;50.792;4.372;2023-04-15T05:22:44;11.90;99.90
24011;DHT22;12217;50.792;4.372;2023-04-15T05:25:09;12.00;99.90
24011;DHT22;12217;50.792;4.372;2023-04-15T05:27:35;11.90;99.90
24011;DHT22;12217;50.792;4.372;2023-04-15T05:30:01;11.90;99.90
24011;DHT22;12217;50.792;4.372;2023-04-15T05:32:26;11.90;99.90
24011;DHT22;12217;50.792;4.372;2023-04-15T05:34:52;11.90;99.90
24011;DHT22;12217;50.792;4.372;2023-04-15T05:37:17;11.90;99.90
24011;DHT22;12217;50.792;4.372;2023-04-15T05:39:45;11.80;99.90
24011;DHT22;12217;50.792;4.372;2023-04-15T05:42:11;11.90;99.90
24011;DHT22;12217;50.792;4.372;2023-04-15T05:44:36;11.90;99.90
24011;DHT22;12217;50.792;4.372;2023-04-15T05:47:02;11.80;99.90
24011;DHT22;12217;50.792;4.372;2023-04-15T05:49:28;11.80;99.90
24011;DHT22;12217;50.792;4.372;2023-04-15T05:51:53;11.90;99.90
24011;DHT22;12217;50.792;4.372;2023-04-15T05:54:19;11.90;99.90
24011;DHT22;12217;50.792;4.372;2023-04-15T05:56:47;11.90;99.90
24011;DHT22;12217;50.792;4.372;2023-04-15T05:59:13;11.90;99.90
24011;DHT22;12217;50.792;4.372;2023-04-15T06:01:38;11.90;99.90
24011;DHT22;12217;50.792;4.372;2023-04-15T06:04:04;11.90;99.90
24011;DHT22;12217;50.792;4.372;2023-04-15T06:06:30;12.00;99.90
24011;DHT22;12217;50.792;4.372;2023-04-15T06:08:57;12.10;99.90
24011;DHT22;12217;50.792;4.372;2023-04-15T06:11:22;12.10;99.90
24011;DHT22;12217;50.792;4.372;2023-04-15T06:13:48;12.10;99.90
24011;DHT22;12217;50.792;4.372;2023-04-15T06:16:14;12.20;99.90
24011;DHT22;12217;50.792;4.372;2023-04-15T06:18:39;12.20;99.90
24011;DHT22;12217;50.792;4.372;2023-04-15T06:21:05;12.20;99.90
24011;DHT22;12217;50.792;4.372;2023-04-15T06:23:33;12.30;99.90
24011;DHT22;12217;50.792;4.372;2023-04-15T06:25:59;12.30;99.90
24011;DHT22;12217;50.792;4.372;2023-04-15T06:28:25;12.30;99.90
24011;DHT22;12217;50.792;4.372;2023-04-15T06:30:52;12.40;99.90
24011;DHT22;12217;50.792;4.372;2023-04-15T06:33:17;12.40;99.90
24011;DHT22;12217;50.792;4.372;2023-04-15T06:35:43;12.30;99.90
24011;DHT22;12217;50.792;4.372;2023-04-15T06:38:09;12.40;99.90
24011;DHT22;12217;50.792;4.372;2023-04-15T06:40:34;12.50;99.90
24011;DHT22;12217;50.792;4.372;2023-04-15T06:43:00;12.70;99.90
24011;DHT22;12217;50.792;4.372;2023-04-15T06:45:26;12.70;99.90
24011;DHT22;12217;50.792;4.372;2023-04-15T06:47:51;12.70;99.90
24011;DHT22;12217;50.792;4.372;2023-04-15T06:50:17;12.80;99.90
24011;DHT22;12217;50.792;4.372;2023-04-15T06:52:43;12.80;99.90
24011;DHT22;12217;50.792;4.372;2023-04-15T06:55:08;12.80;99.90
24011;DHT22;12217;50.792;4.372;2023-04-15T06:57:34;12.90;99.90
24011;DHT22;12217;50.792;4.372;2023-04-15T07:00:00;12.90;99.90
24011;DHT22;12217;50.792;4.372;2023-04-15T07:02:25;12.90;99.90
24011;DHT22;12217;50.792;4.372;2023-04-15T07:04:51;13.00;99.90
24011;DHT22;12217;50.792;4.372;2023-04-15T07:07:17;13.10;99.90
24011;DHT22;12217;50.792;4.372;2023-04-15T07:09:43;12.90;99.90
24011;DHT22;12217;50.792;4.372;2023-04-15T07:12:09;12.90;99.90
24011;DHT22;12217;50.792;4.372;2023-04-15T07:14:34;13.00;99.90
24011;DHT22;12217;50.792;4.372;2023-04-15T07:17:00;13.10;99.90
24011;DHT22;12217;50.792;4.372;2023-04-15T07:19:26;13.10;99.90
24011;DHT22;12217;50.792;4.372;2023-04-15T07:21:52;13.00;99.90
24011;DHT22;12217;50.792;4.372;2023-04-15T07:24:17;13.10;99.90
24011;DHT22;12217;50.792;4.372;2023-04-15T07:26:44;13.20;99.90
24011;DHT22;12217;50.792;4.372;2023-04-15T07:29:10;13.20;99.90
24011;DHT22;12217;50.792;4.372;2023-04-15T07:31:35;13.40;99.90
24011;DHT22;12217;50.792;4.372;2023-04-15T07:34:02;13.50;99.90
24011;DHT22;12217;50.792;4.372;2023-04-15T07:36:28;13.50;99.90
24011;DHT22;12217;50.792;4.372;2023-04-15T07:38:53;13.60;99.90
24011;DHT22;12217;50.792;4.372;2023-04-15T07:41:20;13.70;99.90
24011;DHT22;12217;50.792;4.372;2023-04-15T07:43:46;13.90;99.90
24011;DHT22;12217;50.792;4.372;2023-04-15T07:46:12;13.80;99.90
24011;DHT22;12217;50.792;4.372;2023-04-15T07:48:38;13.90;99.90
24011;DHT22;12217;50.792;4.372;2023-04-15T07:51:04;13.90;99.90
24011;DHT22;12217;50.792;4.372;2023-04-15T07:53:29;13.90;99.90
24011;DHT22;12217;50.792;4.372;2023-04-15T07:55:55;14.00;99.90
24011;DHT22;12217;50.792;4.372;2023-04-15T07:58:21;14.00;99.90
24011;DHT22;12217;50.792;4.372;2023-04-15T08:00:47;13.70;99.90
24011;DHT22;12217;50.792;4.372;2023-04-15T08:03:13;13.70;99.90
24011;DHT22;12217;50.792;4.372;2023-04-15T08:05:39;13.80;99.90
24011;DHT22;12217;50.792;4.372;2023-04-15T08:08:05;13.70;99.90
24011;DHT22;12217;50.792;4.372;2023-04-15T08:10:31;13.70;99.90
24011;DHT22;12217;50.792;4.372;2023-04-15T08:12:56;13.60;99.90
24011;DHT22;12217;50.792;4.372;2023-04-15T08:15:22;13.60;99.90
24011;DHT22;12217;50.792;4.372;2023-04-15T08:17:48;13.50;99.90
24011;DHT22;12217;50.792;4.372;2023-04-15T08:20:14;13.70;99.90
24011;DHT22;12217;50.792;4.372;2023-04-15T08:22:39;13.90;99.90
24011;DHT22;12217;50.792;4.372;2023-04-15T08:25:06;13.90;99.90
24011;DHT22;12217;50.792;4.372;2023-04-15T08:27:31;14.00;99.90
24011;DHT22;12217;50.792;4.372;2023-04-15T08:29:57;14.00;99.90
24011;DHT22;12217;50.792;4.372;2023-04-15T08:32:23;14.00;99.90
24011;DHT22;12217;50.792;4.372;2023-04-15T08:34:50;14.20;99.90
24011;DHT22;12217;50.792;4.372;2023-04-15T08:37:16;14.30;99.90
24011;DHT22;12217;50.792;4.372;2023-04-15T08:39:41;14.40;99.90
24011;DHT22;12217;50.792;4.372;2023-04-15T08:42:16;14.50;99.90
24011;DHT22;12217;50.792;4.372;2023-04-15T08:44:42;14.70;99.90
24011;DHT22;12217;50.792;4.372;2023-04-15T08:47:12;14.80;99.90
24011;DHT22;12217;50.792;4.372;2023-04-15T08:49:39;14.80;99.90
24011;DHT22;12217;50.792;4.372;2023-04-15T08:52:06;15.00;99.90
24011;DHT22;12217;50.792;4.372;2023-04-15T08:54:32;15.10;99.90
24011;DHT22;12217;50.792;4.372;2023-04-15T08:56:58;15.30;99.90
24011;DHT22;12217;50.792;4.372;2023-04-15T08:59:24;15.30;99.90
24011;DHT22;12217;50.792;4.372;2023-04-15T09:01:50;15.40;99.90
24011;DHT22;12217;50.792;4.372;2023-04-15T09:04:16;15.50;99.90
24011;DHT22;12217;50.792;4.372;2023-04-15T09:06:42;15.60;99.90
24011;DHT22;12217;50.792;4.372;2023-04-15T09:09:08;15.60;99.90
24011;DHT22;12217;50.792;4.372;2023-04-15T09:11:34;15.80;99.90
24011;DHT22;12217;50.792;4.372;2023-04-15T09:14:00;16.10;99.90
24011;DHT22;12217;50.792;4.372;2023-04-15T09:16:26;16.30;99.90
24011;DHT22;12217;50.792;4.372;2023-04-15T09:18:53;16.40;99.90
24011;DHT22;12217;50.792;4.372;2023-04-15T09:21:18;16.50;99.90
24011;DHT22;12217;50.792;4.372;2023-04-15T09:23:58;16.50;99.90
24011;DHT22;12217;50.792;4.372;2023-04-15T09:26:35;16.70;99.90
24011;DHT22;12217;50.792;4.372;2023-04-15T09:29:05;16.60;99.90
24011;DHT22;12217;50.792;4.372;2023-04-15T09:31:31;16.70;99.90
24011;DHT22;12217;50.792;4.372;2023-04-15T09:33:57;16.90;99.90
24011;DHT22;12217;50.792;4.372;2023-04-15T09:36:23;16.90;99.90
24011;DHT22;12217;50.792;4.372;2023-04-15T09:38:58;17.10;99.90
24011;DHT22;12217;50.792;4.372;2023-04-15T09:41:25;17.30;99.90
24011;DHT22;12217;50.792;4.372;2023-04-15T09:43:51;17.40;99.90
24011;DHT22;12217;50.792;4.372;2023-04-15T09:46:17;17.70;99.90
24011;DHT22;12217;50.792;4.372;2023-04-15T09:48:43;17.80;99.90
24011;DHT22;12217;50.792;4.372;2023-04-15T09:51:09;17.80;99.90
24011;DHT22;12217;50.792;4.372;2023-04-15T09:53:35;17.90;99.90
24011;DHT22;12217;50.792;4.372;2023-04-15T09:56:03;17.90;99.90
24011;DHT22;12217;50.792;4.372;2023-04-15T09:58:32;17.90;99.90
24011;DHT22;12217;50.792;4.372;2023-04-15T10:01:01;18.00;99.90
24011;DHT22;12217;50.792;4.372;2023-04-15T10:03:29;18.20;99.90
24011;DHT22;12217;50.792;4.372;2023-04-15T10:05:56;18.30;99.90
24011;DHT22;12217;50.792;4.372;2023-04-15T10:08:23;18.30;99.90
24011;DHT22;12217;50.792;4.372;2023-04-15T10:10:50;18.00;99.90
24011;DHT22;12217;50.792;4.372;2023-04-15T10:13:21;18.10;99.90
24011;DHT22;12217;50.792;4.372;2023-04-15T10:16:11;18.20;99.90
24011;DHT22;12217;50.792;4.372;2023-04-15T10:18:42;18.50;99.90
24011;DHT22;12217;50.792;4.372;2023-04-15T10:21:08;18.40;99.90
24011;DHT22;12217;50.792;4.372;2023-04-15T10:23:34;18.20;99.90
24011;DHT22;12217;50.792;4.372;2023-04-15T10:26:01;18.30;99.90
24011;DHT22;12217;50.792;4.372;2023-04-15T10:28:28;18.50;99.90
24011;DHT22;12217;50.792;4.372;2023-04-15T10:30:54;18.40;99.90
24011;DHT22;12217;50.792;4.372;2023-04-15T10:33:22;18.50;99.90
24011;DHT22;12217;50.792;4.372;2023-04-15T10:35:49;18.60;99.70
24011;DHT22;12217;50.792;4.372;2023-04-15T10:38:34;18.50;99.90
24011;DHT22;12217;50.792;4.372;2023-04-15T10:43:52;19.10;99.90
24011;DHT22;12217;50.792;4.372;2023-04-15T10:49:12;19.60;99.90
24011;DHT22;12217;50.792;4.372;2023-04-15T10:51:40;19.80;99.90
24011;DHT22;12217;50.792;4.372;2023-04-15T10:54:30;19.80;96.70
24011;DHT22;12217;50.792;4.372;2023-04-15T10:59:31;19.80;97.20
24011;DHT22;12217;50.792;4.372;2023-04-15T11:02:00;19.70;98.10
24011;DHT22;12217;50.792;4.372;2023-04-15T11:12:39;20.10;92.40
24011;DHT22;12217;50.792;4.372;2023-04-15T11:17:50;20.10;90.60
24011;DHT22;12217;50.792;4.372;2023-04-15T11:20:16;20.40;91.00
24011;DHT22;12217;50.792;4.372;2023-04-15T11:23:00;20.60;87.60
24011;DHT22;12217;50.792;4.372;2023-04-15T11:25:31;20.70;85.00
24011;DHT22;12217;50.792;4.372;2023-04-15T11:27:58;20.80;82.50
24011;DHT22;12217;50.792;4.372;2023-04-15T11:30:29;20.70;68.10
24011;DHT22;12217;50.792;4.372;2023-04-15T11:33:01;20.80;68.80
24011;DHT22;12217;50.792;4.372;2023-04-15T11:35:28;20.90;71.50
24011;DHT22;12217;50.792;4.372;2023-04-15T11:37:54;21.10;71.70
24011;DHT22;12217;50.792;4.372;2023-04-15T11:40:28;21.40;71.20
24011;DHT22;12217;50.792;4.372;2023-04-15T11:45:36;21.20;66.90
24011;DHT22;12217;50.792;4.372;2023-04-15T11:48:09;20.80;67.20
24011;DHT22;12217;50.792;4.372;2023-04-15T11:50:37;21.00;69.50
24011;DHT22;12217;50.792;4.372;2023-04-15T11:53:09;21.40;69.60
24011;DHT22;12217;50.792;4.372;2023-04-15T11:55:47;21.50;68.90
24011;DHT22;12217;50.792;4.372;2023-04-15T11:58:14;21.50;67.70
24011;DHT22;12217;50.792;4.372;2023-04-15T12:00:50;21.10;63.90
24011;DHT22;12217;50.792;4.372;2023-04-15T12:03:20;20.80;63.70
24011;DHT22;12217;50.792;4.372;2023-04-15T12:16:22;21.50;60.30
24011;DHT22;12217;50.792;4.372;2023-04-15T12:18:52;21.80;61.80
24011;DHT22;12217;50.792;4.372;2023-04-15T12:21:20;22.10;60.60
24011;DHT22;12217;50.792;4.372;2023-04-15T12:23:56;22.30;58.60
24011;DHT22;12217;50.792;4.372;2023-04-15T12:26:27;22.20;59.30
24011;DHT22;12217;50.792;4.372;2023-04-15T12:29:05;22.00;59.30
24011;DHT22;12217;50.792;4.372;2023-04-15T12:31:32;21.80;60.50
24011;DHT22;12217;50.792;4.372;2023-04-15T12:33:59;22.00;66.50
24011;DHT22;12217;50.792;4.372;2023-04-15T12:36:25;22.20;58.20
24011;DHT22;12217;50.792;4.372;2023-04-15T12:38:51;22.30;57.70
24011;DHT22;12217;50.792;4.372;2023-04-15T12:41:17;22.30;59.60
24011;DHT22;12217;50.792;4.372;2023-04-15T12:43:46;22.40;58.60
24011;DHT22;12217;50.792;4.372;2023-04-15T12:46:12;22.30;59.60
24011;DHT22;12217;50.792;4.372;2023-04-15T12:48:38;22.00;56.70
24011;DHT22;12217;50.792;4.372;2023-04-15T12:51:04;22.00;56.60
24011;DHT22;12217;50.792;4.372;2023-04-15T12:53:30;21.70;55.40
24011;DHT22;12217;50.792;4.372;2023-04-15T12:55:56;21.90;57.10
24011;DHT22;12217;50.792;4.372;2023-04-15T12:58:21;22.00;55.80
24011;DHT22;12217;50.792;4.372;2023-04-15T13:00:47;22.00;54.60
24011;DHT22;12217;50.792;4.372;2023-04-15T13:03:14;22.20;56.00
24011;DHT22;12217;50.792;4.372;2023-04-15T13:05:39;22.40;54.20
24011;DHT22;12217;50.792;4.372;2023-04-15T13:08:05;22.30;54.30
24011;DHT22;12217;50.792;4.372;2023-04-15T13:10:31;22.50;51.20
24011;DHT22;12217;50.792;4.372;2023-04-15T13:12:57;22.70;51.20
24011;DHT22;12217;50.792;4.372;2023-04-15T13:15:23;22.50;53.00
24011;DHT22;12217;50.792;4.372;2023-04-15T13:17:50;22.40;55.10
24011;DHT22;12217;50.792;4.372;2023-04-15T13:20:15;22.60;52.50
24011;DHT22;12217;50.792;4.372;2023-04-15T13:22:41;22.80;54.10
24011;DHT22;12217;50.792;4.372;2023-04-15T13:25:07;23.10;53.60
24011;DHT22;12217;50.792;4.372;2023-04-15T13:27:33;23.00;52.60
24011;DHT22;12217;50.792;4.372;2023-04-15T13:29:59;22.50;52.50
24011;DHT22;12217;50.792;4.372;2023-04-15T13:32:25;22.20;52.30
24011;DHT22;12217;50.792;4.372;2023-04-15T13:34:50;21.70;54.60
24011;DHT22;12217;50.792;4.372;2023-04-15T13:37:16;21.90;56.00
24011;DHT22;12217;50.792;4.372;2023-04-15T13:39:42;22.20;56.60
24011;DHT22;12217;50.792;4.372;2023-04-15T13:42:07;22.40;55.20
24011;DHT22;12217;50.792;4.372;2023-04-15T13:44:33;22.30;55.20
24011;DHT22;12217;50.792;4.372;2023-04-15T13:46:59;22.20;55.50
24011;DHT22;12217;50.792;4.372;2023-04-15T13:49:25;22.00;57.10
24011;DHT22;12217;50.792;4.372;2023-04-15T13:51:50;22.00;55.50
24011;DHT22;12217;50.792;4.372;2023-04-15T13:54:16;21.80;56.10
24011;DHT22;12217;50.792;4.372;2023-04-15T13:56:42;21.50;55.30
24011;DHT22;12217;50.792;4.372;2023-04-15T13:59:07;21.80;56.60
24011;DHT22;12217;50.792;4.372;2023-04-15T14:01:34;21.90;57.10
24011;DHT22;12217;50.792;4.372;2023-04-15T14:04:00;22.10;57.30
24011;DHT22;12217;50.792;4.372;2023-04-15T14:06:29;22.20;58.70
24011;DHT22;12217;50.792;4.372;2023-04-15T14:08:55;22.30;55.80
24011;DHT22;12217;50.792;4.372;2023-04-15T14:11:21;21.70;57.10
24011;DHT22;12217;50.792;4.372;2023-04-15T14:13:47;21.60;56.80
24011;DHT22;12217;50.792;4.372;2023-04-15T14:16:12;21.40;55.70
24011;DHT22;12217;50.792;4.372;2023-04-15T14:18:39;21.50;54.60
24011;DHT22;12217;50.792;4.372;2023-04-15T14:21:05;21.90;55.60
24011;DHT22;12217;50.792;4.372;2023-04-15T14:23:31;21.90;56.40
24011;DHT22;12217;50.792;4.372;2023-04-15T14:25:57;22.20;56.60
24011;DHT22;12217;50.792;4.372;2023-04-15T14:28:23;22.30;56.30
24011;DHT22;12217;50.792;4.372;2023-04-15T14:30:49;22.00;56.70
24011;DHT22;12217;50.792;4.372;2023-04-15T14:33:14;21.50;57.70
24011;DHT22;12217;50.792;4.372;2023-04-15T14:35:40;21.30;58.40
24011;DHT22;12217;50.792;4.372;2023-04-15T14:38:06;20.90;58.90
24011;DHT22;12217;50.792;4.372;2023-04-15T14:40:35;20.80;59.10
24011;DHT22;12217;50.792;4.372;2023-04-15T14:43:00;20.80;59.70
24011;DHT22;12217;50.792;4.372;2023-04-15T14:45:26;21.10;60.40
24011;DHT22;12217;50.792;4.372;2023-04-15T14:47:52;21.00;59.60
24011;DHT22;12217;50.792;4.372;2023-04-15T14:50:18;21.10;60.80
24011;DHT22;12217;50.792;4.372;2023-04-15T14:52:44;21.10;57.90
24011;DHT22;12217;50.792;4.372;2023-04-15T14:55:11;21.00;57.10
24011;DHT22;12217;50.792;4.372;2023-04-15T14:57:37;20.80;57.60
24011;DHT22;12217;50.792;4.372;2023-04-15T15:00:04;20.80;59.00
24011;DHT22;12217;50.792;4.372;2023-04-15T15:02:33;20.70;60.80
24011;DHT22;12217;50.792;4.372;2023-04-15T15:05:00;20.50;58.60
24011;DHT22;12217;50.792;4.372;2023-04-15T15:07:25;20.50;60.00
24011;DHT22;12217;50.792;4.372;2023-04-15T15:09:52;20.60;59.50
24011;DHT22;12217;50.792;4.372;2023-04-15T15:12:17;20.60;60.80
24011;DHT22;12217;50.792;4.372;2023-04-15T15:14:43;20.20;58.90
24011;DHT22;12217;50.792;4.372;2023-04-15T15:17:09;20.00;61.00
24011;DHT22;12217;50.792;4.372;2023-04-15T15:19:34;19.80;63.50
24011;DHT22;12217;50.792;4.372;2023-04-15T15:22:00;20.00;63.80
24011;DHT22;12217;50.792;4.372;2023-04-15T15:24:25;19.80;65.00
24011;DHT22;12217;50.792;4.372;2023-04-15T15:26:51;19.70;65.50
24011;DHT22;12217;50.792;4.372;2023-04-15T15:29:17;19.90;68.20
24011;DHT22;12217;50.792;4.372;2023-04-15T15:31:42;20.10;66.20
24011;DHT22;12217;50.792;4.372;2023-04-15T15:34:08;20.10;68.80
24011;DHT22;12217;50.792;4.372;2023-04-15T15:36:33;19.90;71.60
24011;DHT22;12217;50.792;4.372;2023-04-15T15:38:59;20.00;77.50
24011;DHT22;12217;50.792;4.372;2023-04-15T15:41:25;19.90;76.90
24011;DHT22;12217;50.792;4.372;2023-04-15T15:43:51;19.70;78.10
24011;DHT22;12217;50.792;4.372;2023-04-15T15:46:17;19.40;81.30
24011;DHT22;12217;50.792;4.372;2023-04-15T15:48:43;19.20;83.30
24011;DHT22;12217;50.792;4.372;2023-04-15T15:51:08;19.00;84.60
24011;DHT22;12217;50.792;4.372;2023-04-15T15:53:34;19.00;87.40
24011;DHT22;12217;50.792;4.372;2023-04-15T15:56:00;19.10;88.50
24011;DHT22;12217;50.792;4.372;2023-04-15T15:58:28;19.10;90.70